Time;durP1;ratioP1;P1;durP2;ratioP2;P2;SDS_P1;SDS_P2;PMS_P1;PMS_P2;Temp;Humidity;BMP_temperature;BMP_pressure;BME280_temperature;BME280_humidity;BME280_pressure;Samples;Min_cycle;Max_cycle;Signal;HPM_P1;HPM_P2
2022/03/15 11:17:08;;;;;;;10.82;5.10;;;;;;;;;;7301211;19;20018;-73
2022/03/15 11:19:35;;;;;;;15.65;5.55;;;;;;;;;;7347208;19;20392;-75
2022/03/15 11:22:01;;;;;;;15.38;5.90;;;;;;;;;;7368025;19;20250;-77
2022/03/15 11:24:29;;;;;;;12.13;5.38;;;;;;;;;;7358086;19;20492;-74
2022/03/15 11:26:54;;;;;;;13.88;5.93;;;;;;;;;;7370758;19;20015;-75
2022/03/15 11:29:22;;;;;;;14.60;5.40;;;;;;;;;;7373030;19;20006;-77
2022/03/15 11:31:47;;;;;;;15.50;6.13;;;;;;;;;;7370466;19;20094;-75
2022/03/15 11:34:13;;;;;;;11.88;5.03;;;;;;;;;;7367353;19;20002;-76
2022/03/15 11:36:38;;;;;;;10.48;4.00;;;;;;;;;;7375316;19;20022;-75
2022/03/15 11:39:03;;;;;;;8.63;4.13;;;;;;;;;;7376398;19;20007;-76
2022/03/15 11:41:29;;;;;;;9.10;3.95;;;;;;;;;;7376247;19;20010;-75
2022/03/15 11:44:02;;;;;;;11.65;3.83;;;;;;;;;;7372608;19;20021;-76
2022/03/15 11:46:29;;;;;;;9.05;3.47;;;;;;;;;;7372006;19;20098;-75
2022/03/15 11:49:20;;;;;;;6.22;3.17;;;;;;;;;;7374457;19;20026;-75
2022/03/15 11:51:58;;;;;;;10.10;3.33;;;;;;;;;;7374728;19;20097;-76
2022/03/15 11:54:23;;;;;;;7.15;2.92;;;;;;;;;;7383432;19;20379;-76
2022/03/15 11:56:48;;;;;;;8.18;3.47;;;;;;;;;;7380961;19;20038;-75
2022/03/15 11:59:14;;;;;;;8.88;3.40;;;;;;;;;;7379738;19;20014;-74
2022/03/15 12:01:46;;;;;;;8.70;4.10;;;;;;;;;;7381071;19;20006;-75
2022/03/15 12:04:11;;;;;;;8.73;4.32;;;;;;;;;;7381446;19;20014;-75
2022/03/15 12:06:37;;;;;;;11.35;4.68;;;;;;;;;;7380025;19;20030;-75
2022/03/15 12:09:10;;;;;;;10.63;4.47;;;;;;;;;;7379008;19;20438;-76
2022/03/15 12:11:36;;;;;;;8.57;4.10;;;;;;;;;;7381082;19;20011;-75
2022/03/15 12:14:04;;;;;;;10.63;4.10;;;;;;;;;;7379533;19;20097;-77
2022/03/15 12:16:34;;;;;;;12.43;4.53;;;;;;;;;;7351268;19;20038;-75
2022/03/15 12:19:10;;;;;;;9.18;4.63;;;;;;;;;;7369009;19;20361;-76
2022/03/15 12:21:49;;;;;;;13.63;4.72;;;;;;;;;;7373190;19;20006;-76
2022/03/15 12:24:28;;;;;;;9.60;4.95;;;;;;;;;;7366486;19;20032;-75
2022/03/15 12:27:04;;;;;;;11.73;4.88;;;;;;;;;;7362047;19;20494;-75
2022/03/15 12:29:30;;;;;;;11.40;4.90;;;;;;;;;;7373380;19;20077;-77
2022/03/15 12:31:57;;;;;;;10.23;4.38;;;;;;;;;;7373132;19;20403;-77
2022/03/15 12:34:24;;;;;;;10.55;4.60;;;;;;;;;;7373325;19;20002;-75
2022/03/15 12:36:49;;;;;;;13.35;5.60;;;;;;;;;;7371771;19;20014;-75
2022/03/15 12:39:17;;;;;;;11.35;5.05;;;;;;;;;;7373404;19;20019;-75
2022/03/15 12:41:42;;;;;;;14.38;5.68;;;;;;;;;;7371088;19;20370;-76
2022/03/15 12:44:08;;;;;;;11.07;5.32;;;;;;;;;;7371666;19;20014;-75
2022/03/15 12:46:34;;;;;;;13.40;6.43;;;;;;;;;;7374424;19;20003;-75
2022/03/15 12:49:06;;;;;;;10.65;5.28;;;;;;;;;;7373963;19;20675;-77
2022/03/15 12:51:38;;;;;;;12.65;6.00;;;;;;;;;;7374307;19;20009;-76
2022/03/15 12:54:04;;;;;;;8.43;5.07;;;;;;;;;;7375029;19;20466;-75
2022/03/15 12:56:30;;;;;;;11.50;5.72;;;;;;;;;;7372508;19;20022;-77
2022/03/15 12:58:55;;;;;;;13.40;6.22;;;;;;;;;;7372169;19;20010;-77
2022/03/15 13:01:21;;;;;;;11.50;5.88;;;;;;;;;;7372678;19;20052;-77
2022/03/15 13:03:46;;;;;;;10.90;6.20;;;;;;;;;;7372724;19;20021;-77
2022/03/15 13:06:19;;;;;;;13.40;6.03;;;;;;;;;;7372917;19;20002;-75
2022/03/15 13:08:51;;;;;;;15.05;5.13;;;;;;;;;;7374308;19;20006;-74
2022/03/15 13:11:16;;;;;;;13.38;4.80;;;;;;;;;;7382336;19;20034;-75
2022/03/15 13:13:45;;;;;;;8.82;4.88;;;;;;;;;;7378711;19;19995;-75
2022/03/15 13:16:10;;;;;;;10.18;4.43;;;;;;;;;;7379377;19;20021;-75
2022/03/15 13:18:36;;;;;;;11.55;6.10;;;;;;;;;;7383058;19;20410;-75
2022/03/15 13:21:02;;;;;;;8.27;4.53;;;;;;;;;;7377047;19;20025;-75
2022/03/15 13:23:28;;;;;;;10.40;4.50;;;;;;;;;;7375552;19;20090;-75
2022/03/15 13:25:58;;;;;;;10.35;4.65;;;;;;;;;;7376501;19;20010;-76
2022/03/15 13:28:24;;;;;;;10.82;5.40;;;;;;;;;;7376989;19;20647;-75
2022/03/15 13:30:52;;;;;;;10.60;4.45;;;;;;;;;;7379344;19;19998;-77
2022/03/15 13:33:27;;;;;;;9.93;4.95;;;;;;;;;;7383285;19;20117;-75
2022/03/15 13:35:56;;;;;;;7.13;4.03;;;;;;;;;;7381795;19;20022;-75
2022/03/15 13:38:22;;;;;;;10.13;4.55;;;;;;;;;;7385477;19;20023;-75
2022/03/15 13:40:48;;;;;;;13.68;4.68;;;;;;;;;;7383214;19;20110;-75
2022/03/15 13:43:14;;;;;;;8.32;4.97;;;;;;;;;;7377638;19;20014;-74
2022/03/15 13:45:40;;;;;;;10.25;4.68;;;;;;;;;;7380334;19;20359;-74
2022/03/15 13:48:05;;;;;;;8.82;4.10;;;;;;;;;;7385110;19;20021;-75
2022/03/15 13:50:31;;;;;;;9.00;4.03;;;;;;;;;;7378029;19;20028;-75
2022/03/15 13:52:57;;;;;;;7.60;4.05;;;;;;;;;;7380923;19;20037;-76
2022/03/15 13:55:26;;;;;;;7.90;4.43;;;;;;;;;;7379885;19;20025;-76
2022/03/15 13:57:52;;;;;;;13.30;5.13;;;;;;;;;;7378497;19;20045;-75
2022/03/15 14:00:18;;;;;;;11.45;4.63;;;;;;;;;;7379335;19;20483;-76
2022/03/15 14:02:48;;;;;;;10.52;5.38;;;;;;;;;;7383319;19;20010;-75
2022/03/15 14:05:15;;;;;;;10.30;5.72;;;;;;;;;;7381126;19;20019;-76
2022/03/15 14:07:43;;;;;;;15.48;5.97;;;;;;;;;;7372483;19;20015;-74
2022/03/15 14:10:10;;;;;;;12.55;6.32;;;;;;;;;;7371760;19;20015;-75
2022/03/15 14:12:36;;;;;;;10.65;6.32;;;;;;;;;;7374867;19;20015;-75
2022/03/15 14:15:13;;;;;;;11.43;6.75;;;;;;;;;;7376637;19;20421;-78
2022/03/15 14:17:48;;;;;;;9.98;5.40;;;;;;;;;;7380369;19;20387;-75
2022/03/15 14:20:14;;;;;;;10.70;6.05;;;;;;;;;;7372287;19;20438;-77
2022/03/15 14:22:52;;;;;;;11.38;6.97;;;;;;;;;;7380638;19;20093;-75
2022/03/15 14:25:21;;;;;;;14.85;8.05;;;;;;;;;;7379548;19;20507;-77
2022/03/15 14:27:48;;;;;;;11.68;6.95;;;;;;;;;;7368335;19;20006;-75
2022/03/15 14:30:16;;;;;;;13.65;6.97;;;;;;;;;;7379344;19;20018;-75
2022/03/15 14:32:51;;;;;;;16.42;7.80;;;;;;;;;;7378447;19;20364;-75
2022/03/15 14:35:18;;;;;;;11.48;6.47;;;;;;;;;;7378166;19;20101;-75
2022/03/15 14:37:46;;;;;;;12.63;7.25;;;;;;;;;;7379585;19;20033;-75
2022/03/15 14:40:13;;;;;;;12.57;6.43;;;;;;;;;;7380020;19;20014;-75
2022/03/15 14:42:43;;;;;;;11.10;6.03;;;;;;;;;;7378036;19;20022;-76
2022/03/15 14:45:12;;;;;;;10.68;6.35;;;;;;;;;;7380276;19;20009;-76
2022/03/15 14:47:38;;;;;;;11.70;6.95;;;;;;;;;;7382240;19;20025;-76
2022/03/15 14:50:04;;;;;;;15.25;8.20;;;;;;;;;;7378084;19;20296;-75
2022/03/15 14:52:29;;;;;;;13.05;6.45;;;;;;;;;;7379318;19;20042;-76
2022/03/15 14:54:54;;;;;;;9.35;5.95;;;;;;;;;;7378745;19;20388;-75
2022/03/15 14:57:20;;;;;;;10.13;6.03;;;;;;;;;;7376938;19;19995;-75
2022/03/15 14:59:46;;;;;;;12.85;7.07;;;;;;;;;;7379270;19;20018;-77
2022/03/15 15:02:12;;;;;;;10.82;6.35;;;;;;;;;;7379842;19;20023;-75
2022/03/15 15:04:38;;;;;;;13.73;7.13;;;;;;;;;;7378993;19;20325;-75
2022/03/15 15:07:10;;;;;;;12.02;7.40;;;;;;;;;;7374829;19;20025;-74
2022/03/15 15:09:39;;;;;;;12.27;6.53;;;;;;;;;;7380732;19;20042;-76
2022/03/15 15:12:06;;;;;;;10.88;6.70;;;;;;;;;;7377639;19;20018;-75
2022/03/15 15:14:32;;;;;;;12.10;7.28;;;;;;;;;;7375712;19;20037;-75
2022/03/15 15:16:59;;;;;;;11.43;6.38;;;;;;;;;;7376976;19;20040;-75
2022/03/15 15:19:25;;;;;;;12.07;6.85;;;;;;;;;;7379546;19;20014;-75
2022/03/15 15:21:52;;;;;;;9.15;5.95;;;;;;;;;;7378721;19;20372;-75
2022/03/15 15:24:17;;;;;;;11.05;6.50;;;;;;;;;;7373228;19;20442;-74
2022/03/15 15:26:43;;;;;;;14.68;6.90;;;;;;;;;;7380398;19;20030;-76
2022/03/15 15:29:10;;;;;;;9.95;6.32;;;;;;;;;;7384448;19;19995;-78
2022/03/15 15:31:35;;;;;;;13.25;6.07;;;;;;;;;;7378970;19;20035;-77
2022/03/15 15:34:01;;;;;;;12.68;6.30;;;;;;;;;;7381344;19;20003;-77
2022/03/15 15:36:26;;;;;;;12.13;7.05;;;;;;;;;;7387059;19;20010;-75
2022/03/15 15:38:52;;;;;;;11.87;7.27;;;;;;;;;;7387966;19;20043;-74
2022/03/15 15:41:19;;;;;;;12.80;8.52;;;;;;;;;;7382208;19;20235;-76
2022/03/15 15:43:44;;;;;;;13.50;8.18;;;;;;;;;;7376650;19;20015;-79
2022/03/15 15:46:18;;;;;;;13.00;7.70;;;;;;;;;;7383039;19;20006;-75
2022/03/15 15:48:47;;;;;;;14.70;8.65;;;;;;;;;;7384470;19;20018;-75
2022/03/15 15:51:12;;;;;;;13.75;8.20;;;;;;;;;;7384704;19;20442;-77
2022/03/15 15:53:37;;;;;;;13.15;7.97;;;;;;;;;;7384157;19;20010;-76
2022/03/15 15:56:05;;;;;;;12.93;7.93;;;;;;;;;;7383798;19;20035;-77
2022/03/15 15:58:30;;;;;;;17.23;8.40;;;;;;;;;;7382109;19;20006;-75
2022/03/15 16:00:57;;;;;;;14.95;8.23;;;;;;;;;;7384834;19;20014;-77
2022/03/15 16:03:22;;;;;;;13.63;8.75;;;;;;;;;;7381799;19;20023;-76
2022/03/15 16:05:48;;;;;;;16.13;8.52;;;;;;;;;;7385215;19;20011;-75
2022/03/15 16:08:14;;;;;;;18.45;8.07;;;;;;;;;;7385202;19;20621;-75
2022/03/15 16:10:39;;;;;;;16.63;9.90;;;;;;;;;;7378794;19;20042;-75
2022/03/15 16:13:04;;;;;;;14.27;9.20;;;;;;;;;;7380476;19;20624;-75
2022/03/15 16:15:30;;;;;;;16.02;9.27;;;;;;;;;;7382490;19;20488;-75
2022/03/15 16:17:56;;;;;;;14.75;8.50;;;;;;;;;;7383511;19;20016;-79
2022/03/15 16:20:23;;;;;;;13.13;8.30;;;;;;;;;;7383866;19;20078;-75
2022/03/15 16:22:48;;;;;;;16.08;8.90;;;;;;;;;;7384977;19;20013;-77
2022/03/15 16:25:14;;;;;;;15.30;9.13;;;;;;;;;;7381278;19;20006;-75
2022/03/15 16:27:39;;;;;;;16.65;9.85;;;;;;;;;;7377308;19;19994;-77
2022/03/15 16:30:06;;;;;;;13.23;8.88;;;;;;;;;;7381806;19;20078;-77
2022/03/15 16:32:31;;;;;;;16.17;8.77;;;;;;;;;;7385899;19;20001;-76
2022/03/15 16:34:58;;;;;;;14.82;8.70;;;;;;;;;;7380534;19;20002;-75
2022/03/15 16:37:24;;;;;;;14.27;10.02;;;;;;;;;;7379827;19;20003;-75
2022/03/15 16:39:49;;;;;;;15.02;9.65;;;;;;;;;;7378372;19;20475;-76
2022/03/15 16:42:15;;;;;;;16.25;9.70;;;;;;;;;;7380871;19;20003;-75
2022/03/15 16:44:41;;;;;;;16.08;9.25;;;;;;;;;;7381859;19;19986;-75
2022/03/15 16:47:06;;;;;;;15.38;9.10;;;;;;;;;;7382700;19;20472;-76
2022/03/15 16:49:32;;;;;;;13.63;8.63;;;;;;;;;;7385909;19;20003;-76
2022/03/15 16:51:57;;;;;;;13.07;8.95;;;;;;;;;;7381070;19;20385;-74
2022/03/15 16:54:23;;;;;;;15.95;8.80;;;;;;;;;;7383322;19;20003;-77
2022/03/15 16:56:48;;;;;;;14.27;8.23;;;;;;;;;;7379529;19;20413;-75
2022/03/15 16:59:14;;;;;;;13.48;8.75;;;;;;;;;;7384549;19;20009;-75
2022/03/15 17:01:40;;;;;;;13.45;9.38;;;;;;;;;;7378206;19;20510;-75
2022/03/15 17:06:50;;;;;;;16.48;11.18;;;;;;;;;;7383496;19;20029;-77
2022/03/15 17:09:15;;;;;;;17.90;10.77;;;;;;;;;;7380051;19;20006;-75
2022/03/15 17:11:41;;;;;;;18.98;11.00;;;;;;;;;;7380312;19;19994;-77
2022/03/15 17:14:07;;;;;;;21.35;10.80;;;;;;;;;;7382215;19;20469;-75
2022/03/15 17:16:35;;;;;;;16.88;11.60;;;;;;;;;;7377944;19;20411;-75
2022/03/15 17:19:01;;;;;;;19.88;11.00;;;;;;;;;;7381944;19;21001;-75
2022/03/15 17:21:28;;;;;;;21.77;12.40;;;;;;;;;;7384176;19;20038;-76
2022/03/15 17:23:54;;;;;;;19.92;11.45;;;;;;;;;;7376232;19;20275;-75
2022/03/15 17:26:23;;;;;;;17.40;10.57;;;;;;;;;;7378417;19;20086;-75
2022/03/15 17:28:51;;;;;;;17.90;12.23;;;;;;;;;;7378025;19;19998;-75
2022/03/15 17:31:17;;;;;;;18.27;11.23;;;;;;;;;;7373378;19;20366;-75
2022/03/15 17:33:42;;;;;;;14.60;10.20;;;;;;;;;;7378648;19;20465;-77
2022/03/15 17:36:09;;;;;;;17.77;10.40;;;;;;;;;;7379257;19;20562;-75
2022/03/15 17:38:34;;;;;;;16.98;11.25;;;;;;;;;;7377885;19;19999;-77
2022/03/15 17:41:00;;;;;;;20.33;12.25;;;;;;;;;;7381582;19;20002;-75
2022/03/15 17:43:26;;;;;;;22.05;13.65;;;;;;;;;;7376761;19;20010;-76
2022/03/15 17:45:51;;;;;;;23.63;13.75;;;;;;;;;;7378754;19;20010;-75
2022/03/15 17:48:18;;;;;;;20.50;11.43;;;;;;;;;;7382979;19;20027;-77
2022/03/15 17:50:47;;;;;;;20.40;11.40;;;;;;;;;;7377019;19;20014;-75
2022/03/15 17:53:19;;;;;;;22.92;14.25;;;;;;;;;;7376055;19;20540;-75
2022/03/15 17:55:45;;;;;;;34.17;20.38;;;;;;;;;;7376385;19;20037;-76
2022/03/15 17:58:15;;;;;;;21.30;13.40;;;;;;;;;;7378447;19;20090;-75
2022/03/15 18:00:40;;;;;;;25.27;14.55;;;;;;;;;;7377179;19;20017;-75
2022/03/15 18:03:09;;;;;;;25.85;15.27;;;;;;;;;;7380857;19;20006;-76
2022/03/15 18:05:35;;;;;;;25.23;14.85;;;;;;;;;;7379342;19;20010;-75
2022/03/15 18:08:00;;;;;;;21.17;13.48;;;;;;;;;;7378151;19;20005;-75
2022/03/15 18:13:11;;;;;;;24.13;14.95;;;;;;;;;;7380025;19;20084;-76
2022/03/15 18:15:37;;;;;;;22.05;13.13;;;;;;;;;;7374156;19;20014;-75
2022/03/15 18:18:04;;;;;;;22.10;13.50;;;;;;;;;;7381707;19;20078;-75
2022/03/15 18:20:40;;;;;;;19.77;12.85;;;;;;;;;;7382673;19;20003;-75
2022/03/15 18:23:05;;;;;;;20.50;14.52;;;;;;;;;;7376380;19;20122;-75
2022/03/15 18:25:33;;;;;;;23.73;15.82;;;;;;;;;;7380067;19;20007;-75
2022/03/15 18:28:01;;;;;;;24.88;15.20;;;;;;;;;;7374145;19;20023;-75
2022/03/15 18:30:26;;;;;;;30.88;18.23;;;;;;;;;;7377295;19;20018;-75
2022/03/15 18:32:52;;;;;;;24.92;17.02;;;;;;;;;;7369726;19;20095;-77
2022/03/15 18:35:19;;;;;;;21.08;15.27;;;;;;;;;;7359272;19;20014;-76
2022/03/15 18:37:46;;;;;;;23.80;14.98;;;;;;;;;;7379356;19;20360;-79
2022/03/15 18:40:32;;;;;;;26.67;15.73;;;;;;;;;;7374632;19;20410;-75
2022/03/15 18:43:02;;;;;;;23.25;15.77;;;;;;;;;;7369981;19;20013;-76
2022/03/15 18:45:31;;;;;;;26.85;17.23;;;;;;;;;;7341601;19;20018;-88
2022/03/15 18:47:56;;;;;;;26.67;15.90;;;;;;;;;;7334540;19;20014;-87
2022/03/15 18:50:23;;;;;;;25.77;16.30;;;;;;;;;;7361507;19;20316;-87
2022/03/15 18:52:48;;;;;;;23.05;15.63;;;;;;;;;;7366907;19;20484;-86
2022/03/15 18:55:13;;;;;;;28.23;15.35;;;;;;;;;;7360488;19;20070;-86
2022/03/15 18:57:39;;;;;;;26.13;16.80;;;;;;;;;;7368526;19;20098;-84
2022/03/15 19:00:05;;;;;;;29.88;17.25;;;;;;;;;;7364322;19;20093;-86
2022/03/15 19:02:30;;;;;;;26.48;16.77;;;;;;;;;;7365742;19;20011;-87
2022/03/15 19:05:05;;;;;;;27.42;16.42;;;;;;;;;;7364939;19;20014;-86
2022/03/15 19:07:31;;;;;;;22.85;15.75;;;;;;;;;;7372696;19;20074;-87
2022/03/15 19:09:56;;;;;;;25.27;15.70;;;;;;;;;;7372632;19;20022;-86
2022/03/15 19:12:22;;;;;;;22.83;15.17;;;;;;;;;;7372649;19;20002;-87
2022/03/15 19:14:48;;;;;;;25.75;16.88;;;;;;;;;;7369944;19;20267;-87
2022/03/15 19:17:13;;;;;;;23.73;15.88;;;;;;;;;;7367732;19;20012;-86
2022/03/15 19:19:39;;;;;;;23.80;15.38;;;;;;;;;;7371614;19;20482;-86
2022/03/15 19:22:04;;;;;;;23.75;16.30;;;;;;;;;;7369953;19;20694;-86
2022/03/15 19:24:29;;;;;;;24.95;15.68;;;;;;;;;;7353336;19;20114;-88
2022/03/15 19:26:55;;;;;;;24.00;15.02;;;;;;;;;;7367610;19;20025;-90
